sensor_id;sensor_type;location;lat;lon;timestamp;pressure;altitude;pressure_sealevel;temperature;humidity
31239;BME280;17871;31.584;74.450;2022-09-09T00:04:37;98164.44;;;31.43;100.00
31239;BME280;17871;31.584;74.450;2022-09-09T00:07:47;98174.28;;;31.52;100.00
31239;BME280;17871;31.584;74.450;2022-09-09T00:10:39;98166.25;;;31.43;100.00
31239;BME280;17871;31.584;74.450;2022-09-09T00:13:48;98172.84;;;31.48;100.00
31239;BME280;17871;31.584;74.450;2022-09-09T00:16:42;98171.19;;;31.36;100.00
31239;BME280;17871;31.584;74.450;2022-09-09T00:20:02;98179.00;;;31.37;100.00
31239;BME280;17871;31.584;74.450;2022-09-09T00:23:12;98174.41;;;31.39;100.00
31239;BME280;17871;31.584;74.450;2022-09-09T00:29:20;98193.03;;;31.38;100.00
31239;BME280;17871;31.584;74.450;2022-09-09T00:32:17;98191.34;;;31.37;100.00
31239;BME280;17871;31.584;74.450;2022-09-09T00:35:23;98182.94;;;31.43;100.00
31239;BME280;17871;31.584;74.450;2022-09-09T00:38:18;98193.84;;;31.38;100.00
31239;BME280;17871;31.584;74.450;2022-09-09T00:41:14;98205.31;;;31.28;100.00
31239;BME280;17871;31.584;74.450;2022-09-09T00:44:27;98207.66;;;31.42;100.00
31239;BME280;17871;31.584;74.450;2022-09-09T00:47:49;98201.06;;;31.48;100.00
31239;BME280;17871;31.584;74.450;2022-09-09T00:51:00;98203.13;;;31.33;100.00
31239;BME280;17871;31.584;74.450;2022-09-09T00:57:31;98210.09;;;31.34;100.00
31239;BME280;17871;31.584;74.450;2022-09-09T01:00:29;98222.34;;;31.35;100.00
31239;BME280;17871;31.584;74.450;2022-09-09T01:03:55;98223.03;;;31.48;100.00
31239;BME280;17871;31.584;74.450;2022-09-09T01:06:53;98232.66;;;31.38;100.00
31239;BME280;17871;31.584;74.450;2022-09-09T01:09:56;98238.91;;;31.26;100.00
31239;BME280;17871;31.584;74.450;2022-09-09T01:12:49;98226.41;;;31.39;100.00
31239;BME280;17871;31.584;74.450;2022-09-09T01:15:42;98230.63;;;31.42;100.00
31239;BME280;17871;31.584;74.450;2022-09-09T01:18:54;98239.84;;;31.58;100.00
31239;BME280;17871;31.584;74.450;2022-09-09T01:21:48;98243.22;;;31.60;100.00
31239;BME280;17871;31.584;74.450;2022-09-09T01:24:41;98244.16;;;31.70;100.00
31239;BME280;17871;31.584;74.450;2022-09-09T01:27:43;98241.03;;;31.65;100.00
31239;BME280;17871;31.584;74.450;2022-09-09T01:30:33;98248.94;;;31.76;100.00
31239;BME280;17871;31.584;74.450;2022-09-09T01:33:23;98245.41;;;31.87;100.00
31239;BME280;17871;31.584;74.450;2022-09-09T01:36:31;98247.41;;;31.95;100.00
31239;BME280;17871;31.584;74.450;2022-09-09T01:39:24;98250.41;;;32.01;100.00
31239;BME280;17871;31.584;74.450;2022-09-09T01:42:20;98243.09;;;32.05;100.00
31239;BME280;17871;31.584;74.450;2022-09-09T01:45:10;98248.38;;;32.05;99.68
31239;BME280;17871;31.584;74.450;2022-09-09T01:47:59;98256.63;;;32.11;98.83
31239;BME280;17871;31.584;74.450;2022-09-09T01:51:12;98255.16;;;32.18;98.39
31239;BME280;17871;31.584;74.450;2022-09-09T01:54:01;98254.41;;;32.27;97.27
31239;BME280;17871;31.584;74.450;2022-09-09T01:59:51;98267.78;;;32.47;95.55
31239;BME280;17871;31.584;74.450;2022-09-09T02:05:45;98271.81;;;32.62;95.33
31239;BME280;17871;31.584;74.450;2022-09-09T02:08:48;98269.22;;;32.71;94.18
31239;BME280;17871;31.584;74.450;2022-09-09T02:11:38;98267.94;;;32.66;94.08
31239;BME280;17871;31.584;74.450;2022-09-09T02:14:37;98264.56;;;32.84;94.14
31239;BME280;17871;31.584;74.450;2022-09-09T02:17:30;98263.63;;;32.95;93.76
31239;BME280;17871;31.584;74.450;2022-09-09T02:20:28;98273.66;;;32.92;93.80
31239;BME280;17871;31.584;74.450;2022-09-09T02:23:22;98273.88;;;32.79;93.35
31239;BME280;17871;31.584;74.450;2022-09-09T02:26:14;98273.34;;;32.85;93.78
31239;BME280;17871;31.584;74.450;2022-09-09T02:29:15;98281.47;;;32.93;93.07
31239;BME280;17871;31.584;74.450;2022-09-09T02:32:09;98265.09;;;33.09;92.27
31239;BME280;17871;31.584;74.450;2022-09-09T02:35:05;98271.59;;;33.16;92.60
31239;BME280;17871;31.584;74.450;2022-09-09T02:37:59;98275.63;;;33.20;93.56
31239;BME280;17871;31.584;74.450;2022-09-09T02:40:50;98272.16;;;33.19;93.08
31239;BME280;17871;31.584;74.450;2022-09-09T02:43:40;98268.66;;;33.19;93.16
31239;BME280;17871;31.584;74.450;2022-09-09T02:46:43;98274.03;;;33.38;92.30
31239;BME280;17871;31.584;74.450;2022-09-09T02:52:32;98266.44;;;33.24;93.34
31239;BME280;17871;31.584;74.450;2022-09-09T02:55:29;98278.19;;;33.31;93.88
31239;BME280;17871;31.584;74.450;2022-09-09T02:58:26;98282.38;;;33.33;92.70
31239;BME280;17871;31.584;74.450;2022-09-09T03:01:21;98284.28;;;33.22;93.76
31239;BME280;17871;31.584;74.450;2022-09-09T03:04:11;98284.91;;;33.35;92.87
31239;BME280;17871;31.584;74.450;2022-09-09T03:07:00;98286.22;;;33.60;92.54
31239;BME280;17871;31.584;74.450;2022-09-09T03:09:49;98290.88;;;33.67;92.93
31239;BME280;17871;31.584;74.450;2022-09-09T03:12:39;98295.22;;;33.78;91.83
31239;BME280;17871;31.584;74.450;2022-09-09T03:15:30;98287.28;;;33.78;90.80
31239;BME280;17871;31.584;74.450;2022-09-09T03:18:19;98291.47;;;33.90;89.84
31239;BME280;17871;31.584;74.450;2022-09-09T03:21:12;98299.03;;;33.95;88.83
31239;BME280;17871;31.584;74.450;2022-09-09T03:24:02;98299.31;;;33.92;88.82
31239;BME280;17871;31.584;74.450;2022-09-09T03:26:52;98303.75;;;33.81;87.12
31239;BME280;17871;31.584;74.450;2022-09-09T03:29:41;98304.19;;;34.06;87.56
31239;BME280;17871;31.584;74.450;2022-09-09T03:32:34;98305.75;;;33.99;87.27
31239;BME280;17871;31.584;74.450;2022-09-09T03:35:23;98308.56;;;34.16;87.63
31239;BME280;17871;31.584;74.450;2022-09-09T03:38:13;98317.94;;;34.30;86.90
31239;BME280;17871;31.584;74.450;2022-09-09T03:41:02;98320.31;;;34.33;86.22
31239;BME280;17871;31.584;74.450;2022-09-09T03:43:53;98319.34;;;34.34;86.44
31239;BME280;17871;31.584;74.450;2022-09-09T03:46:44;98319.75;;;34.39;86.36
31239;BME280;17871;31.584;74.450;2022-09-09T03:49:34;98313.31;;;34.41;85.28
31239;BME280;17871;31.584;74.450;2022-09-09T03:52:24;98317.06;;;34.58;85.28
31239;BME280;17871;31.584;74.450;2022-09-09T03:55:17;98323.66;;;34.73;82.44
31239;BME280;17871;31.584;74.450;2022-09-09T03:58:06;98327.28;;;34.82;80.65
31239;BME280;17871;31.584;74.450;2022-09-09T04:00:57;98318.44;;;34.91;80.18
31239;BME280;17871;31.584;74.450;2022-09-09T04:03:47;98333.81;;;35.07;79.68
31239;BME280;17871;31.584;74.450;2022-09-09T04:06:37;98323.19;;;35.16;80.87
31239;BME280;17871;31.584;74.450;2022-09-09T04:09:26;98320.31;;;35.27;80.27
31239;BME280;17871;31.584;74.450;2022-09-09T04:12:16;98326.19;;;35.31;78.86
31239;BME280;17871;31.584;74.450;2022-09-09T04:15:05;98330.06;;;35.00;77.70
31239;BME280;17871;31.584;74.450;2022-09-09T04:17:56;98331.88;;;35.46;77.97
31239;BME280;17871;31.584;74.450;2022-09-09T04:20:47;98329.03;;;35.66;78.12
31239;BME280;17871;31.584;74.450;2022-09-09T04:23:42;98325.69;;;35.55;76.42
31239;BME280;17871;31.584;74.450;2022-09-09T04:26:32;98338.28;;;35.62;74.62
31239;BME280;17871;31.584;74.450;2022-09-09T04:29:22;98335.63;;;35.62;74.39
31239;BME280;17871;31.584;74.450;2022-09-09T04:32:11;98344.34;;;35.82;71.59
31239;BME280;17871;31.584;74.450;2022-09-09T04:35:00;98334.53;;;35.82;72.49
31239;BME280;17871;31.584;74.450;2022-09-09T04:37:53;98336.09;;;36.03;72.61
31239;BME280;17871;31.584;74.450;2022-09-09T04:40:46;98336.41;;;35.72;71.31
31239;BME280;17871;31.584;74.450;2022-09-09T04:43:36;98345.84;;;36.12;71.25
31239;BME280;17871;31.584;74.450;2022-09-09T04:46:33;98346.03;;;36.28;71.02
31239;BME280;17871;31.584;74.450;2022-09-09T04:49:25;98343.97;;;36.22;70.52
31239;BME280;17871;31.584;74.450;2022-09-09T04:52:18;98338.25;;;36.17;69.65
31239;BME280;17871;31.584;74.450;2022-09-09T04:55:07;98348.75;;;36.36;70.85
31239;BME280;17871;31.584;74.450;2022-09-09T04:58:04;98339.91;;;36.53;71.07
31239;BME280;17871;31.584;74.450;2022-09-09T05:00:53;98340.53;;;36.47;68.77
31239;BME280;17871;31.584;74.450;2022-09-09T05:03:44;98342.84;;;36.60;69.43
31239;BME280;17871;31.584;74.450;2022-09-09T05:06:39;98339.94;;;36.71;68.92
31239;BME280;17871;31.584;74.450;2022-09-09T05:09:31;98351.03;;;36.66;67.94
31239;BME280;17871;31.584;74.450;2022-09-09T05:12:21;98343.44;;;36.71;69.29
31239;BME280;17871;31.584;74.450;2022-09-09T05:15:12;98345.50;;;36.77;68.57
31239;BME280;17871;31.584;74.450;2022-09-09T05:18:02;98348.50;;;37.00;69.51
31239;BME280;17871;31.584;74.450;2022-09-09T05:20:51;98340.41;;;37.10;69.13
31239;BME280;17871;31.584;74.450;2022-09-09T05:23:41;98342.44;;;37.16;67.65
31239;BME280;17871;31.584;74.450;2022-09-09T05:26:30;98334.19;;;37.27;68.09
31239;BME280;17871;31.584;74.450;2022-09-09T05:29:21;98339.22;;;37.38;67.24
31239;BME280;17871;31.584;74.450;2022-09-09T05:32:11;98340.03;;;37.56;66.50
31239;BME280;17871;31.584;74.450;2022-09-09T05:35:04;98332.25;;;37.45;65.59
31239;BME280;17871;31.584;74.450;2022-09-09T05:37:53;98333.97;;;37.46;65.74
31239;BME280;17871;31.584;74.450;2022-09-09T05:40:47;98331.56;;;37.69;66.09
31239;BME280;17871;31.584;74.450;2022-09-09T05:43:38;98324.13;;;37.80;64.59
31239;BME280;17871;31.584;74.450;2022-09-09T05:46:27;98331.47;;;37.86;64.06
31239;BME280;17871;31.584;74.450;2022-09-09T05:49:18;98326.50;;;37.91;63.49
31239;BME280;17871;31.584;74.450;2022-09-09T05:52:07;98321.28;;;37.82;63.13
31239;BME280;17871;31.584;74.450;2022-09-09T05:54:57;98324.44;;;37.85;63.25
31239;BME280;17871;31.584;74.450;2022-09-09T05:57:48;98320.03;;;38.02;64.66
31239;BME280;17871;31.584;74.450;2022-09-09T06:00:38;98314.25;;;37.81;63.19
31239;BME280;17871;31.584;74.450;2022-09-09T06:03:27;98310.16;;;37.95;63.42
31239;BME280;17871;31.584;74.450;2022-09-09T06:06:17;98312.06;;;38.10;63.34
31239;BME280;17871;31.584;74.450;2022-09-09T06:09:14;98316.53;;;38.10;62.99
31239;BME280;17871;31.584;74.450;2022-09-09T06:12:03;98309.09;;;37.79;63.05
31239;BME280;17871;31.584;74.450;2022-09-09T06:14:55;98309.50;;;37.92;61.94
31239;BME280;17871;31.584;74.450;2022-09-09T06:17:44;98309.06;;;38.29;63.08
31239;BME280;17871;31.584;74.450;2022-09-09T06:20:34;98302.69;;;38.30;62.51
31239;BME280;17871;31.584;74.450;2022-09-09T06:23:23;98297.84;;;38.18;63.35
31239;BME280;17871;31.584;74.450;2022-09-09T06:26:16;98294.88;;;38.29;63.10
31239;BME280;17871;31.584;74.450;2022-09-09T06:29:09;98287.50;;;38.31;62.92
31239;BME280;17871;31.584;74.450;2022-09-09T06:32:01;98286.50;;;38.16;62.36
31239;BME280;17871;31.584;74.450;2022-09-09T06:34:51;98284.56;;;38.42;61.85
31239;BME280;17871;31.584;74.450;2022-09-09T06:37:44;98289.19;;;38.16;61.32
31239;BME280;17871;31.584;74.450;2022-09-09T06:40:33;98280.53;;;38.30;62.60
31239;BME280;17871;31.584;74.450;2022-09-09T06:43:27;98277.88;;;38.46;63.02
31239;BME280;17871;31.584;74.450;2022-09-09T06:46:22;98277.53;;;38.49;62.72
31239;BME280;17871;31.584;74.450;2022-09-09T06:49:11;98270.50;;;38.72;61.70
31239;BME280;17871;31.584;74.450;2022-09-09T06:52:01;98265.50;;;38.69;61.36
31239;BME280;17871;31.584;74.450;2022-09-09T06:54:50;98269.66;;;38.64;60.72
31239;BME280;17871;31.584;74.450;2022-09-09T06:57:41;98261.16;;;38.68;60.85
31239;BME280;17871;31.584;74.450;2022-09-09T07:00:35;98262.03;;;38.36;61.10
31239;BME280;17871;31.584;74.450;2022-09-09T07:03:27;98255.47;;;38.71;61.80
31239;BME280;17871;31.584;74.450;2022-09-09T07:06:17;98249.63;;;38.76;61.29
31239;BME280;17871;31.584;74.450;2022-09-09T07:09:08;98244.13;;;38.85;60.58
31239;BME280;17871;31.584;74.450;2022-09-09T07:12:00;98248.44;;;38.70;61.10
31239;BME280;17871;31.584;74.450;2022-09-09T07:14:55;98246.84;;;38.53;59.07
31239;BME280;17871;31.584;74.450;2022-09-09T07:17:44;98230.44;;;38.80;60.55
31239;BME280;17871;31.584;74.450;2022-09-09T07:20:35;98226.06;;;38.79;59.61
31239;BME280;17871;31.584;74.450;2022-09-09T07:23:24;98212.66;;;39.04;60.42
31239;BME280;17871;31.584;74.450;2022-09-09T07:26:18;98210.97;;;39.03;59.03
31239;BME280;17871;31.584;74.450;2022-09-09T07:29:08;98207.28;;;39.04;60.32
31239;BME280;17871;31.584;74.450;2022-09-09T07:31:57;98205.59;;;39.11;58.93
31239;BME280;17871;31.584;74.450;2022-09-09T07:34:54;98202.28;;;39.01;60.10
31239;BME280;17871;31.584;74.450;2022-09-09T07:37:44;98195.47;;;38.90;59.16
31239;BME280;17871;31.584;74.450;2022-09-09T07:40:39;98193.28;;;39.02;60.16
31239;BME280;17871;31.584;74.450;2022-09-09T07:43:28;98189.41;;;39.04;60.73
31239;BME280;17871;31.584;74.450;2022-09-09T07:46:21;98182.19;;;39.13;60.34
31239;BME280;17871;31.584;74.450;2022-09-09T07:49:11;98169.97;;;39.18;60.78
31239;BME280;17871;31.584;74.450;2022-09-09T07:52:01;98168.31;;;39.17;59.50
31239;BME280;17871;31.584;74.450;2022-09-09T07:54:52;98163.44;;;39.29;59.53
31239;BME280;17871;31.584;74.450;2022-09-09T07:57:43;98162.72;;;39.35;59.07
31239;BME280;17871;31.584;74.450;2022-09-09T08:00:34;98159.03;;;39.36;60.26
31239;BME280;17871;31.584;74.450;2022-09-09T08:03:24;98145.88;;;38.96;59.15
31239;BME280;17871;31.584;74.450;2022-09-09T08:06:13;98140.22;;;38.74;60.06
31239;BME280;17871;31.584;74.450;2022-09-09T08:09:03;98131.16;;;38.91;59.21
31239;BME280;17871;31.584;74.450;2022-09-09T08:11:52;98137.97;;;39.02;59.80
31239;BME280;17871;31.584;74.450;2022-09-09T08:14:43;98127.50;;;38.92;57.98
31239;BME280;17871;31.584;74.450;2022-09-09T08:17:33;98121.94;;;39.02;58.88
31239;BME280;17871;31.584;74.450;2022-09-09T08:20:25;98113.22;;;38.61;58.87
31239;BME280;17871;31.584;74.450;2022-09-09T08:23:14;98109.53;;;38.62;59.99
31239;BME280;17871;31.584;74.450;2022-09-09T08:26:06;98109.47;;;38.78;60.53
31239;BME280;17871;31.584;74.450;2022-09-09T08:28:58;98105.47;;;39.13;59.63
31239;BME280;17871;31.584;74.450;2022-09-09T08:31:50;98108.63;;;39.17;58.72
31239;BME280;17871;31.584;74.450;2022-09-09T08:34:43;98102.25;;;39.26;58.94
31239;BME280;17871;31.584;74.450;2022-09-09T08:37:38;98090.25;;;39.22;57.92
31239;BME280;17871;31.584;74.450;2022-09-09T08:40:29;98092.50;;;39.33;58.44
31239;BME280;17871;31.584;74.450;2022-09-09T08:43:23;98079.81;;;39.35;57.56
31239;BME280;17871;31.584;74.450;2022-09-09T08:46:27;98084.59;;;39.39;58.29
31239;BME280;17871;31.584;74.450;2022-09-09T08:55:28;98050.56;;;39.33;57.39
31239;BME280;17871;31.584;74.450;2022-09-09T08:58:23;98052.88;;;39.36;57.39
31239;BME280;17871;31.584;74.450;2022-09-09T09:01:44;98047.88;;;39.33;57.62
31239;BME280;17871;31.584;74.450;2022-09-09T09:07:53;98042.38;;;39.35;58.98
31239;BME280;17871;31.584;74.450;2022-09-09T09:10:50;98041.06;;;39.31;57.64
31239;BME280;17871;31.584;74.450;2022-09-09T09:13:47;98036.06;;;39.28;56.83
31239;BME280;17871;31.584;74.450;2022-09-09T09:19:48;98023.81;;;39.33;57.18
31239;BME280;17871;31.584;74.450;2022-09-09T09:22:45;98014.94;;;39.33;57.27
31239;BME280;17871;31.584;74.450;2022-09-09T09:25:38;98015.13;;;39.09;58.07
31239;BME280;17871;31.584;74.450;2022-09-09T09:28:30;98015.13;;;39.09;58.30
31239;BME280;17871;31.584;74.450;2022-09-09T09:31:28;98011.31;;;39.26;57.27
31239;BME280;17871;31.584;74.450;2022-09-09T09:34:18;97998.00;;;38.95;58.32
31239;BME280;17871;31.584;74.450;2022-09-09T09:37:16;97990.16;;;38.93;59.07
31239;BME280;17871;31.584;74.450;2022-09-09T09:40:09;97991.34;;;39.14;59.25
31239;BME280;17871;31.584;74.450;2022-09-09T09:42:59;97980.59;;;39.22;59.21
31239;BME280;17871;31.584;74.450;2022-09-09T09:45:49;97974.34;;;39.07;58.59
31239;BME280;17871;31.584;74.450;2022-09-09T09:49:03;97971.75;;;38.99;58.11
31239;BME280;17871;31.584;74.450;2022-09-09T09:51:54;97968.72;;;38.71;59.63
31239;BME280;17871;31.584;74.450;2022-09-09T09:54:49;97977.06;;;38.76;59.87
31239;BME280;17871;31.584;74.450;2022-09-09T09:57:40;97967.94;;;38.62;60.82
31239;BME280;17871;31.584;74.450;2022-09-09T10:00:35;97967.00;;;38.47;60.90
31239;BME280;17871;31.584;74.450;2022-09-09T10:03:29;97974.03;;;38.48;61.45
31239;BME280;17871;31.584;74.450;2022-09-09T10:06:33;97962.72;;;38.38;60.31
31239;BME280;17871;31.584;74.450;2022-09-09T10:09:26;97958.41;;;38.29;60.88
31239;BME280;17871;31.584;74.450;2022-09-09T10:12:20;97951.03;;;38.39;59.92
31239;BME280;17871;31.584;74.450;2022-09-09T10:15:47;97942.47;;;38.13;59.64
31239;BME280;17871;31.584;74.450;2022-09-09T10:21:48;97944.53;;;37.78;61.06
31239;BME280;17871;31.584;74.450;2022-09-09T10:36:35;97943.59;;;37.55;63.07
31239;BME280;17871;31.584;74.450;2022-09-09T10:42:30;97954.59;;;37.20;65.76
31239;BME280;17871;31.584;74.450;2022-09-09T10:45:28;97928.03;;;36.70;67.79
31239;BME280;17871;31.584;74.450;2022-09-09T10:48:30;97939.13;;;36.49;70.96
31239;BME280;17871;31.584;74.450;2022-09-09T10:51:25;97961.06;;;36.43;72.63
31239;BME280;17871;31.584;74.450;2022-09-09T10:57:36;97962.97;;;36.17;72.62
31239;BME280;17871;31.584;74.450;2022-09-09T11:00:49;97964.97;;;36.15;71.38
31239;BME280;17871;31.584;74.450;2022-09-09T11:03:42;97954.97;;;36.09;71.54
31239;BME280;17871;31.584;74.450;2022-09-09T11:06:35;97948.97;;;36.07;71.49
31239;BME280;17871;31.584;74.450;2022-09-09T11:09:28;97943.59;;;35.99;70.35
31239;BME280;17871;31.584;74.450;2022-09-09T11:12:22;97949.16;;;35.79;69.25
31239;BME280;17871;31.584;74.450;2022-09-09T11:15:14;97938.56;;;35.44;69.43
31239;BME280;17871;31.584;74.450;2022-09-09T11:18:06;97940.63;;;35.50;70.19
31239;BME280;17871;31.584;74.450;2022-09-09T11:20:59;97941.06;;;35.63;70.54
31239;BME280;17871;31.584;74.450;2022-09-09T11:23:53;97935.06;;;35.61;71.02
31239;BME280;17871;31.584;74.450;2022-09-09T11:27:03;97940.38;;;35.61;70.62
31239;BME280;17871;31.584;74.450;2022-09-09T11:42:20;97937.06;;;35.93;70.98
31239;BME280;17871;31.584;74.450;2022-09-09T11:45:30;97932.50;;;35.77;69.83
31239;BME280;17871;31.584;74.450;2022-09-09T11:48:32;97929.44;;;35.64;70.07
31239;BME280;17871;31.584;74.450;2022-09-09T11:54:33;97924.00;;;35.74;70.52
31239;BME280;17871;31.584;74.450;2022-09-09T11:57:34;97930.53;;;35.79;69.93
31239;BME280;17871;31.584;74.450;2022-09-09T12:01:01;97933.94;;;35.98;69.36
31239;BME280;17871;31.584;74.450;2022-09-09T12:04:17;97923.28;;;35.98;68.76
31239;BME280;17871;31.584;74.450;2022-09-09T12:10:52;97917.50;;;35.68;69.46
31239;BME280;17871;31.584;74.450;2022-09-09T12:13:20;97924.03;;;35.82;70.83
31239;BME280;17871;31.584;74.450;2022-09-09T12:16:27;97919.09;;;35.61;73.06
31239;BME280;17871;31.584;74.450;2022-09-09T12:19:21;97920.50;;;35.73;70.64
31239;BME280;17871;31.584;74.450;2022-09-09T12:25:28;97917.50;;;35.51;72.09
31239;BME280;17871;31.584;74.450;2022-09-09T12:34:15;97919.41;;;35.32;74.63
31239;BME280;17871;31.584;74.450;2022-09-09T12:40:20;97913.81;;;35.43;74.15
31239;BME280;17871;31.584;74.450;2022-09-09T12:43:20;97909.44;;;35.34;74.37
31239;BME280;17871;31.584;74.450;2022-09-09T12:46:12;97905.28;;;35.14;76.56
31239;BME280;17871;31.584;74.450;2022-09-09T12:49:18;97909.84;;;35.22;75.89
31239;BME280;17871;31.584;74.450;2022-09-09T12:52:19;97904.50;;;35.14;76.25
31239;BME280;17871;31.584;74.450;2022-09-09T12:55:16;97895.91;;;35.20;75.68
31239;BME280;17871;31.584;74.450;2022-09-09T12:58:06;97897.00;;;35.17;75.99
31239;BME280;17871;31.584;74.450;2022-09-09T13:00:56;97900.56;;;35.08;75.57
31239;BME280;17871;31.584;74.450;2022-09-09T13:03:46;97896.06;;;35.01;75.75
31239;BME280;17871;31.584;74.450;2022-09-09T13:06:36;97892.06;;;35.05;76.04
31239;BME280;17871;31.584;74.450;2022-09-09T13:09:25;97900.97;;;34.96;75.65
31239;BME280;17871;31.584;74.450;2022-09-09T13:12:23;97889.72;;;35.02;75.79
31239;BME280;17871;31.584;74.450;2022-09-09T13:15:23;97896.88;;;35.01;75.57
31239;BME280;17871;31.584;74.450;2022-09-09T13:18:17;97898.09;;;34.89;76.97
31239;BME280;17871;31.584;74.450;2022-09-09T13:21:10;97894.06;;;34.85;76.65
31239;BME280;17871;31.584;74.450;2022-09-09T13:23:59;97906.50;;;34.84;76.36
31239;BME280;17871;31.584;74.450;2022-09-09T13:26:58;97897.97;;;34.73;77.22
31239;BME280;17871;31.584;74.450;2022-09-09T13:29:53;97902.00;;;34.77;77.34
31239;BME280;17871;31.584;74.450;2022-09-09T13:32:45;97906.22;;;34.70;76.88
31239;BME280;17871;31.584;74.450;2022-09-09T13:35:36;97897.13;;;34.72;77.97
31239;BME280;17871;31.584;74.450;2022-09-09T13:38:52;97890.84;;;34.73;78.45
31239;BME280;17871;31.584;74.450;2022-09-09T13:41:43;97893.31;;;34.57;79.67
31239;BME280;17871;31.584;74.450;2022-09-09T13:44:36;97900.88;;;34.52;78.46
31239;BME280;17871;31.584;74.450;2022-09-09T13:47:29;97900.03;;;34.52;79.46
31239;BME280;17871;31.584;74.450;2022-09-09T13:50:21;97903.53;;;34.52;78.65
31239;BME280;17871;31.584;74.450;2022-09-09T13:53:11;97897.00;;;34.47;78.15
31239;BME280;17871;31.584;74.450;2022-09-09T13:56:00;97898.38;;;34.51;79.13
31239;BME280;17871;31.584;74.450;2022-09-09T13:58:50;97898.16;;;34.44;79.02
31239;BME280;17871;31.584;74.450;2022-09-09T14:01:39;97895.09;;;34.39;79.15
31239;BME280;17871;31.584;74.450;2022-09-09T14:04:30;97898.47;;;34.41;79.85
31239;BME280;17871;31.584;74.450;2022-09-09T14:07:20;97897.84;;;34.47;79.59
31239;BME280;17871;31.584;74.450;2022-09-09T14:10:09;97904.81;;;34.48;79.89
31239;BME280;17871;31.584;74.450;2022-09-09T14:12:59;97905.13;;;34.45;79.30
31239;BME280;17871;31.584;74.450;2022-09-09T14:15:48;97905.13;;;34.45;79.58
31239;BME280;17871;31.584;74.450;2022-09-09T14:18:38;97908.47;;;34.47;79.02
31239;BME280;17871;31.584;74.450;2022-09-09T14:21:28;97905.03;;;34.37;78.74
31239;BME280;17871;31.584;74.450;2022-09-09T14:24:17;97915.50;;;34.38;77.32
31239;BME280;17871;31.584;74.450;2022-09-09T14:27:06;97909.94;;;34.32;78.11
31239;BME280;17871;31.584;74.450;2022-09-09T14:29:56;97915.28;;;34.50;77.48
31239;BME280;17871;31.584;74.450;2022-09-09T14:32:46;97917.72;;;34.43;76.13
31239;BME280;17871;31.584;74.450;2022-09-09T14:35:36;97926.28;;;34.37;76.80
31239;BME280;17871;31.584;74.450;2022-09-09T14:38:28;97923.91;;;34.34;77.44
31239;BME280;17871;31.584;74.450;2022-09-09T14:41:18;97932.56;;;34.36;78.08
31239;BME280;17871;31.584;74.450;2022-09-09T14:44:08;97929.28;;;34.24;77.73
31239;BME280;17871;31.584;74.450;2022-09-09T14:46:59;97925.19;;;34.30;77.24
31239;BME280;17871;31.584;74.450;2022-09-09T14:49:48;97918.91;;;34.31;77.51
31239;BME280;17871;31.584;74.450;2022-09-09T14:52:39;97925.94;;;34.22;78.29
31239;BME280;17871;31.584;74.450;2022-09-09T14:55:28;97926.94;;;34.21;77.62
31239;BME280;17871;31.584;74.450;2022-09-09T14:58:18;97924.28;;;34.21;78.52
31239;BME280;17871;31.584;74.450;2022-09-09T15:01:08;97923.75;;;34.18;78.88
31239;BME280;17871;31.584;74.450;2022-09-09T15:04:03;97930.44;;;34.12;80.11
31239;BME280;17871;31.584;74.450;2022-09-09T15:06:52;97939.13;;;34.05;80.12
31239;BME280;17871;31.584;74.450;2022-09-09T15:09:44;97939.34;;;33.84;81.91
31239;BME280;17871;31.584;74.450;2022-09-09T15:12:41;97934.59;;;33.87;81.45
31239;BME280;17871;31.584;74.450;2022-09-09T15:15:30;97937.34;;;33.96;81.38
31239;BME280;17871;31.584;74.450;2022-09-09T15:18:00;97942.81;;;33.94;81.38
31239;BME280;17871;31.584;74.450;2022-09-09T15:20:33;97947.69;;;33.89;82.06
31239;BME280;17871;31.584;74.450;2022-09-09T15:23:08;97947.84;;;33.87;83.00
31239;BME280;17871;31.584;74.450;2022-09-09T15:25:37;97947.00;;;33.87;83.01
31239;BME280;17871;31.584;74.450;2022-09-09T15:28:06;97948.44;;;33.81;82.57
31239;BME280;17871;31.584;74.450;2022-09-09T15:30:35;97947.31;;;33.84;83.26
31239;BME280;17871;31.584;74.450;2022-09-09T15:33:07;97946.75;;;33.80;82.81
31239;BME280;17871;31.584;74.450;2022-09-09T15:35:39;97949.03;;;33.66;83.43
31239;BME280;17871;31.584;74.450;2022-09-09T15:38:11;97948.34;;;33.64;84.26
31239;BME280;17871;31.584;74.450;2022-09-09T15:40:44;97947.34;;;33.74;83.26
31239;BME280;17871;31.584;74.450;2022-09-09T15:43:14;97952.34;;;33.77;83.16
31239;BME280;17871;31.584;74.450;2022-09-09T15:45:46;97942.03;;;33.74;83.38
31239;BME280;17871;31.584;74.450;2022-09-09T15:48:20;97946.63;;;33.72;82.81
31239;BME280;17871;31.584;74.450;2022-09-09T15:51:00;97946.13;;;33.69;84.15
31239;BME280;17871;31.584;74.450;2022-09-09T15:53:54;97941.25;;;33.64;83.82
31239;BME280;17871;31.584;74.450;2022-09-09T15:56:24;97937.75;;;33.64;84.01
31239;BME280;17871;31.584;74.450;2022-09-09T15:58:53;97939.25;;;33.57;83.32
31239;BME280;17871;31.584;74.450;2022-09-09T16:01:24;97940.41;;;33.54;83.54
31239;BME280;17871;31.584;74.450;2022-09-09T16:03:53;97945.56;;;33.56;83.68
31239;BME280;17871;31.584;74.450;2022-09-09T16:06:22;97940.69;;;33.61;83.82
31239;BME280;17871;31.584;74.450;2022-09-09T16:08:52;97935.94;;;33.64;83.46
31239;BME280;17871;31.584;74.450;2022-09-09T16:11:22;97933.53;;;33.71;82.80
31239;BME280;17871;31.584;74.450;2022-09-09T16:13:52;97941.22;;;33.74;82.18
31239;BME280;17871;31.584;74.450;2022-09-09T16:16:23;97934.09;;;33.74;83.25
31239;BME280;17871;31.584;74.450;2022-09-09T16:18:55;97933.28;;;33.64;84.91
31239;BME280;17871;31.584;74.450;2022-09-09T16:21:25;97933.41;;;33.53;85.24